sensor_id;sensor_type;location;lat;lon;timestamp;temperature;humidity
52159;DHT22;38145;53.182;6.284;2022-07-23T00:01:01;14.50;99.90
52159;DHT22;38145;53.182;6.284;2022-07-23T00:03:27;14.60;99.90
52159;DHT22;38145;53.182;6.284;2022-07-23T00:05:54;14.60;99.90
52159;DHT22;38145;53.182;6.284;2022-07-23T00:08:20;14.60;99.90
52159;DHT22;38145;53.182;6.284;2022-07-23T00:10:46;14.70;99.90
52159;DHT22;38145;53.182;6.284;2022-07-23T00:13:12;14.70;99.90
52159;DHT22;38145;53.182;6.284;2022-07-23T00:15:44;14.80;99.90
52159;DHT22;38145;53.182;6.284;2022-07-23T00:18:11;14.70;99.90
52159;DHT22;38145;53.182;6.284;2022-07-23T00:20:37;14.80;99.90
52159;DHT22;38145;53.182;6.284;2022-07-23T00:23:03;14.70;99.90
52159;DHT22;38145;53.182;6.284;2022-07-23T00:25:29;14.80;99.90
52159;DHT22;38145;53.182;6.284;2022-07-23T00:28:18;14.70;99.90
52159;DHT22;38145;53.182;6.284;2022-07-23T00:30:46;14.80;99.90
52159;DHT22;38145;53.182;6.284;2022-07-23T00:33:13;14.70;99.90
52159;DHT22;38145;53.182;6.284;2022-07-23T00:35:42;14.70;99.90
52159;DHT22;38145;53.182;6.284;2022-07-23T00:38:09;14.70;99.90
52159;DHT22;38145;53.182;6.284;2022-07-23T00:40:37;14.70;99.90
52159;DHT22;38145;53.182;6.284;2022-07-23T00:43:04;14.70;99.90
52159;DHT22;38145;53.182;6.284;2022-07-23T00:45:31;14.60;99.90
52159;DHT22;38145;53.182;6.284;2022-07-23T00:47:58;14.60;99.90
52159;DHT22;38145;53.182;6.284;2022-07-23T00:50:25;14.60;99.90
52159;DHT22;38145;53.182;6.284;2022-07-23T00:52:52;14.50;99.90
52159;DHT22;38145;53.182;6.284;2022-07-23T00:55:19;14.30;99.90
52159;DHT22;38145;53.182;6.284;2022-07-23T00:57:47;14.30;99.90
52159;DHT22;38145;53.182;6.284;2022-07-23T01:00:14;14.30;99.90
52159;DHT22;38145;53.182;6.284;2022-07-23T01:02:41;14.20;99.90
52159;DHT22;38145;53.182;6.284;2022-07-23T01:05:08;14.20;99.90
52159;DHT22;38145;53.182;6.284;2022-07-23T01:07:34;14.20;99.90
52159;DHT22;38145;53.182;6.284;2022-07-23T01:10:01;14.30;99.90
52159;DHT22;38145;53.182;6.284;2022-07-23T01:12:27;14.20;99.90
52159;DHT22;38145;53.182;6.284;2022-07-23T01:14:55;14.20;99.90
52159;DHT22;38145;53.182;6.284;2022-07-23T01:17:21;14.10;99.90
52159;DHT22;38145;53.182;6.284;2022-07-23T01:19:48;14.00;99.90
52159;DHT22;38145;53.182;6.284;2022-07-23T01:22:15;14.00;99.90
52159;DHT22;38145;53.182;6.284;2022-07-23T01:24:43;13.90;99.90
52159;DHT22;38145;53.182;6.284;2022-07-23T01:27:10;13.80;99.90
52159;DHT22;38145;53.182;6.284;2022-07-23T01:29:36;13.80;99.90
52159;DHT22;38145;53.182;6.284;2022-07-23T01:32:02;13.70;99.90
52159;DHT22;38145;53.182;6.284;2022-07-23T01:34:29;13.70;99.90
52159;DHT22;38145;53.182;6.284;2022-07-23T01:36:55;13.70;99.90
52159;DHT22;38145;53.182;6.284;2022-07-23T01:39:21;13.60;99.90
52159;DHT22;38145;53.182;6.284;2022-07-23T01:41:48;13.60;99.90
52159;DHT22;38145;53.182;6.284;2022-07-23T01:44:14;13.50;99.90
52159;DHT22;38145;53.182;6.284;2022-07-23T01:46:41;13.60;99.90
52159;DHT22;38145;53.182;6.284;2022-07-23T01:49:08;13.60;99.90
52159;DHT22;38145;53.182;6.284;2022-07-23T01:51:35;13.60;99.90
52159;DHT22;38145;53.182;6.284;2022-07-23T01:54:01;13.60;99.90
52159;DHT22;38145;53.182;6.284;2022-07-23T01:56:27;13.60;99.90
52159;DHT22;38145;53.182;6.284;2022-07-23T01:58:53;13.60;99.90
52159;DHT22;38145;53.182;6.284;2022-07-23T02:01:20;13.60;99.90
52159;DHT22;38145;53.182;6.284;2022-07-23T02:03:46;13.60;99.90
52159;DHT22;38145;53.182;6.284;2022-07-23T02:06:12;13.60;99.90
52159;DHT22;38145;53.182;6.284;2022-07-23T02:08:39;13.50;99.90
52159;DHT22;38145;53.182;6.284;2022-07-23T02:11:05;13.60;99.90
52159;DHT22;38145;53.182;6.284;2022-07-23T02:13:32;13.50;99.90
52159;DHT22;38145;53.182;6.284;2022-07-23T02:15:59;13.50;99.90
52159;DHT22;38145;53.182;6.284;2022-07-23T02:18:26;13.50;99.90
52159;DHT22;38145;53.182;6.284;2022-07-23T02:20:52;13.50;99.90
52159;DHT22;38145;53.182;6.284;2022-07-23T02:23:20;13.40;99.90
52159;DHT22;38145;53.182;6.284;2022-07-23T02:25:48;13.50;99.90
52159;DHT22;38145;53.182;6.284;2022-07-23T02:28:15;13.30;99.90
52159;DHT22;38145;53.182;6.284;2022-07-23T02:30:41;13.30;99.90
52159;DHT22;38145;53.182;6.284;2022-07-23T02:33:08;13.30;99.90
52159;DHT22;38145;53.182;6.284;2022-07-23T02:35:34;13.30;99.90
52159;DHT22;38145;53.182;6.284;2022-07-23T02:38:01;13.30;99.90
52159;DHT22;38145;53.182;6.284;2022-07-23T02:40:27;13.30;99.90
52159;DHT22;38145;53.182;6.284;2022-07-23T02:42:54;13.20;99.90
52159;DHT22;38145;53.182;6.284;2022-07-23T02:45:20;13.30;99.90
52159;DHT22;38145;53.182;6.284;2022-07-23T02:47:46;13.30;99.90
52159;DHT22;38145;53.182;6.284;2022-07-23T02:50:13;13.20;99.90
52159;DHT22;38145;53.182;6.284;2022-07-23T02:52:39;13.10;99.90
52159;DHT22;38145;53.182;6.284;2022-07-23T02:55:06;13.00;99.90
52159;DHT22;38145;53.182;6.284;2022-07-23T02:57:34;13.00;99.90
52159;DHT22;38145;53.182;6.284;2022-07-23T03:00:04;12.90;99.90
52159;DHT22;38145;53.182;6.284;2022-07-23T03:02:31;12.90;99.90
52159;DHT22;38145;53.182;6.284;2022-07-23T03:04:57;12.90;99.90
52159;DHT22;38145;53.182;6.284;2022-07-23T03:07:24;12.90;99.90
52159;DHT22;38145;53.182;6.284;2022-07-23T03:09:51;12.90;99.90
52159;DHT22;38145;53.182;6.284;2022-07-23T03:12:18;12.80;99.90
52159;DHT22;38145;53.182;6.284;2022-07-23T03:14:44;12.80;99.90
52159;DHT22;38145;53.182;6.284;2022-07-23T03:17:11;12.80;99.90
52159;DHT22;38145;53.182;6.284;2022-07-23T03:19:37;12.70;99.90
52159;DHT22;38145;53.182;6.284;2022-07-23T03:22:04;12.80;99.90
52159;DHT22;38145;53.182;6.284;2022-07-23T03:24:31;12.70;99.90
52159;DHT22;38145;53.182;6.284;2022-07-23T03:27:16;12.60;99.90
52159;DHT22;38145;53.182;6.284;2022-07-23T03:29:43;12.70;99.90
52159;DHT22;38145;53.182;6.284;2022-07-23T03:32:09;12.80;99.90
52159;DHT22;38145;53.182;6.284;2022-07-23T03:34:36;12.90;99.90
52159;DHT22;38145;53.182;6.284;2022-07-23T03:37:02;12.90;99.90
52159;DHT22;38145;53.182;6.284;2022-07-23T03:39:29;12.80;99.90
52159;DHT22;38145;53.182;6.284;2022-07-23T03:41:56;12.80;99.90
52159;DHT22;38145;53.182;6.284;2022-07-23T03:44:23;12.90;99.90
52159;DHT22;38145;53.182;6.284;2022-07-23T03:46:50;13.00;99.90
52159;DHT22;38145;53.182;6.284;2022-07-23T03:49:16;12.80;99.90
52159;DHT22;38145;53.182;6.284;2022-07-23T03:51:43;12.90;99.90
52159;DHT22;38145;53.182;6.284;2022-07-23T03:54:10;12.90;99.90
52159;DHT22;38145;53.182;6.284;2022-07-23T03:56:36;12.90;99.90
52159;DHT22;38145;53.182;6.284;2022-07-23T03:59:03;13.00;99.90
52159;DHT22;38145;53.182;6.284;2022-07-23T04:01:29;13.00;99.90
52159;DHT22;38145;53.182;6.284;2022-07-23T04:03:55;13.10;99.90
52159;DHT22;38145;53.182;6.284;2022-07-23T04:06:23;13.00;99.90
52159;DHT22;38145;53.182;6.284;2022-07-23T04:08:49;13.10;99.90
52159;DHT22;38145;53.182;6.284;2022-07-23T04:11:16;13.10;99.90
52159;DHT22;38145;53.182;6.284;2022-07-23T04:13:42;13.10;99.90
52159;DHT22;38145;53.182;6.284;2022-07-23T04:16:08;13.10;99.90
52159;DHT22;38145;53.182;6.284;2022-07-23T04:18:34;13.20;99.90
52159;DHT22;38145;53.182;6.284;2022-07-23T04:21:00;13.20;99.90
52159;DHT22;38145;53.182;6.284;2022-07-23T04:23:27;13.20;99.90
52159;DHT22;38145;53.182;6.284;2022-07-23T04:25:53;13.20;99.90
52159;DHT22;38145;53.182;6.284;2022-07-23T04:28:19;13.20;99.90
52159;DHT22;38145;53.182;6.284;2022-07-23T04:30:47;13.20;99.90
52159;DHT22;38145;53.182;6.284;2022-07-23T04:33:13;13.20;99.90
52159;DHT22;38145;53.182;6.284;2022-07-23T04:35:40;13.30;99.90
52159;DHT22;38145;53.182;6.284;2022-07-23T04:38:06;13.30;99.90
52159;DHT22;38145;53.182;6.284;2022-07-23T04:40:32;13.40;99.90
52159;DHT22;38145;53.182;6.284;2022-07-23T04:42:59;13.40;99.90
52159;DHT22;38145;53.182;6.284;2022-07-23T04:45:25;13.40;99.90
52159;DHT22;38145;53.182;6.284;2022-07-23T04:47:52;13.50;99.90
52159;DHT22;38145;53.182;6.284;2022-07-23T04:50:18;13.50;99.90
52159;DHT22;38145;53.182;6.284;2022-07-23T04:52:48;13.50;99.90
52159;DHT22;38145;53.182;6.284;2022-07-23T04:55:15;13.50;99.90
52159;DHT22;38145;53.182;6.284;2022-07-23T04:57:42;13.50;99.90
52159;DHT22;38145;53.182;6.284;2022-07-23T05:00:09;13.50;99.90
52159;DHT22;38145;53.182;6.284;2022-07-23T05:02:37;13.50;99.90
52159;DHT22;38145;53.182;6.284;2022-07-23T05:05:03;13.50;99.90
52159;DHT22;38145;53.182;6.284;2022-07-23T05:07:30;13.60;99.90
52159;DHT22;38145;53.182;6.284;2022-07-23T05:09:56;13.50;99.90
52159;DHT22;38145;53.182;6.284;2022-07-23T05:12:23;13.60;99.90
52159;DHT22;38145;53.182;6.284;2022-07-23T05:14:49;13.50;99.90
52159;DHT22;38145;53.182;6.284;2022-07-23T05:17:16;13.50;99.90
52159;DHT22;38145;53.182;6.284;2022-07-23T05:19:42;13.60;99.90
52159;DHT22;38145;53.182;6.284;2022-07-23T05:22:09;13.70;99.90
52159;DHT22;38145;53.182;6.284;2022-07-23T05:24:35;13.70;99.90
52159;DHT22;38145;53.182;6.284;2022-07-23T05:27:02;13.70;99.90
52159;DHT22;38145;53.182;6.284;2022-07-23T05:29:28;13.70;99.90
52159;DHT22;38145;53.182;6.284;2022-07-23T05:31:54;13.80;99.90
52159;DHT22;38145;53.182;6.284;2022-07-23T05:34:21;13.90;99.90
52159;DHT22;38145;53.182;6.284;2022-07-23T05:36:49;13.90;99.90
52159;DHT22;38145;53.182;6.284;2022-07-23T05:39:17;13.90;99.90
52159;DHT22;38145;53.182;6.284;2022-07-23T05:41:43;14.10;99.90
52159;DHT22;38145;53.182;6.284;2022-07-23T05:44:10;14.20;99.90
52159;DHT22;38145;53.182;6.284;2022-07-23T05:46:36;14.20;99.90
52159;DHT22;38145;53.182;6.284;2022-07-23T05:49:02;14.40;99.90
52159;DHT22;38145;53.182;6.284;2022-07-23T05:51:29;14.50;99.90
52159;DHT22;38145;53.182;6.284;2022-07-23T05:53:55;14.70;99.90
52159;DHT22;38145;53.182;6.284;2022-07-23T05:56:22;14.70;99.90
52159;DHT22;38145;53.182;6.284;2022-07-23T05:58:48;14.90;99.90
52159;DHT22;38145;53.182;6.284;2022-07-23T06:01:14;15.10;99.90
52159;DHT22;38145;53.182;6.284;2022-07-23T06:03:41;15.00;99.90
52159;DHT22;38145;53.182;6.284;2022-07-23T06:06:07;15.10;99.90
52159;DHT22;38145;53.182;6.284;2022-07-23T06:08:34;15.20;99.90
52159;DHT22;38145;53.182;6.284;2022-07-23T06:11:01;15.20;99.90
52159;DHT22;38145;53.182;6.284;2022-07-23T06:13:28;15.30;99.90
52159;DHT22;38145;53.182;6.284;2022-07-23T06:15:54;15.40;99.90
52159;DHT22;38145;53.182;6.284;2022-07-23T06:18:21;15.40;99.90
52159;DHT22;38145;53.182;6.284;2022-07-23T06:20:47;15.40;99.90
52159;DHT22;38145;53.182;6.284;2022-07-23T06:23:15;15.40;99.90
52159;DHT22;38145;53.182;6.284;2022-07-23T06:25:41;15.50;99.90
52159;DHT22;38145;53.182;6.284;2022-07-23T06:28:08;15.40;99.90
52159;DHT22;38145;53.182;6.284;2022-07-23T06:30:34;15.50;99.90
52159;DHT22;38145;53.182;6.284;2022-07-23T06:33:01;15.60;99.90
52159;DHT22;38145;53.182;6.284;2022-07-23T06:35:28;15.60;99.90
52159;DHT22;38145;53.182;6.284;2022-07-23T06:37:54;15.70;99.90
52159;DHT22;38145;53.182;6.284;2022-07-23T06:40:21;15.70;99.90
52159;DHT22;38145;53.182;6.284;2022-07-23T06:42:47;15.80;99.90
52159;DHT22;38145;53.182;6.284;2022-07-23T06:45:14;15.80;99.90
52159;DHT22;38145;53.182;6.284;2022-07-23T06:47:41;15.90;99.90
52159;DHT22;38145;53.182;6.284;2022-07-23T06:50:08;15.90;99.90
52159;DHT22;38145;53.182;6.284;2022-07-23T06:52:35;16.00;99.90
52159;DHT22;38145;53.182;6.284;2022-07-23T06:55:03;16.00;99.90
52159;DHT22;38145;53.182;6.284;2022-07-23T06:57:30;16.00;99.90
52159;DHT22;38145;53.182;6.284;2022-07-23T06:59:57;16.00;99.90
52159;DHT22;38145;53.182;6.284;2022-07-23T07:02:23;16.10;99.90
52159;DHT22;38145;53.182;6.284;2022-07-23T07:04:50;16.20;99.90
52159;DHT22;38145;53.182;6.284;2022-07-23T07:07:19;16.20;99.90
52159;DHT22;38145;53.182;6.284;2022-07-23T07:09:45;16.30;99.90
52159;DHT22;38145;53.182;6.284;2022-07-23T07:12:11;16.30;99.90
52159;DHT22;38145;53.182;6.284;2022-07-23T07:14:38;16.40;99.90
52159;DHT22;38145;53.182;6.284;2022-07-23T07:17:06;16.50;99.90
52159;DHT22;38145;53.182;6.284;2022-07-23T07:19:33;16.80;99.90
52159;DHT22;38145;53.182;6.284;2022-07-23T07:21:59;17.00;99.90
52159;DHT22;38145;53.182;6.284;2022-07-23T07:24:26;17.10;99.90
52159;DHT22;38145;53.182;6.284;2022-07-23T07:26:52;17.20;99.90
52159;DHT22;38145;53.182;6.284;2022-07-23T07:29:18;17.30;99.90
52159;DHT22;38145;53.182;6.284;2022-07-23T07:31:47;17.60;99.90
52159;DHT22;38145;53.182;6.284;2022-07-23T07:34:14;18.00;99.90
52159;DHT22;38145;53.182;6.284;2022-07-23T07:36:40;18.10;99.90
52159;DHT22;38145;53.182;6.284;2022-07-23T07:39:07;18.10;99.90
52159;DHT22;38145;53.182;6.284;2022-07-23T07:41:38;18.30;99.90
52159;DHT22;38145;53.182;6.284;2022-07-23T07:44:06;18.40;99.90
52159;DHT22;38145;53.182;6.284;2022-07-23T07:46:32;18.30;99.90
52159;DHT22;38145;53.182;6.284;2022-07-23T07:48:59;18.30;99.90
52159;DHT22;38145;53.182;6.284;2022-07-23T07:51:26;18.30;99.90
52159;DHT22;38145;53.182;6.284;2022-07-23T07:53:53;18.30;99.90
52159;DHT22;38145;53.182;6.284;2022-07-23T07:56:19;18.20;99.90
52159;DHT22;38145;53.182;6.284;2022-07-23T07:58:46;18.20;99.90
52159;DHT22;38145;53.182;6.284;2022-07-23T08:01:12;18.00;99.90
52159;DHT22;38145;53.182;6.284;2022-07-23T08:03:39;17.90;99.90
52159;DHT22;38145;53.182;6.284;2022-07-23T08:06:05;17.80;99.90
52159;DHT22;38145;53.182;6.284;2022-07-23T08:08:32;17.80;99.90
52159;DHT22;38145;53.182;6.284;2022-07-23T08:10:59;17.90;99.90
52159;DHT22;38145;53.182;6.284;2022-07-23T08:13:26;17.90;99.90
52159;DHT22;38145;53.182;6.284;2022-07-23T08:15:52;18.10;99.90
52159;DHT22;38145;53.182;6.284;2022-07-23T08:18:19;18.20;99.90
52159;DHT22;38145;53.182;6.284;2022-07-23T08:20:46;18.40;99.90
52159;DHT22;38145;53.182;6.284;2022-07-23T08:23:12;18.50;99.90
52159;DHT22;38145;53.182;6.284;2022-07-23T08:25:41;18.50;99.90
52159;DHT22;38145;53.182;6.284;2022-07-23T08:28:09;18.40;99.90
52159;DHT22;38145;53.182;6.284;2022-07-23T08:30:37;18.40;99.90
52159;DHT22;38145;53.182;6.284;2022-07-23T08:33:07;18.40;99.90
52159;DHT22;38145;53.182;6.284;2022-07-23T08:35:40;18.30;99.90
52159;DHT22;38145;53.182;6.284;2022-07-23T08:38:08;18.30;99.90
52159;DHT22;38145;53.182;6.284;2022-07-23T08:40:38;18.20;99.90
52159;DHT22;38145;53.182;6.284;2022-07-23T08:43:07;18.10;99.90
52159;DHT22;38145;53.182;6.284;2022-07-23T08:45:37;18.00;99.90
52159;DHT22;38145;53.182;6.284;2022-07-23T08:48:07;17.90;99.90
52159;DHT22;38145;53.182;6.284;2022-07-23T08:50:35;17.80;99.90
52159;DHT22;38145;53.182;6.284;2022-07-23T08:53:05;17.80;99.90
52159;DHT22;38145;53.182;6.284;2022-07-23T08:55:32;17.80;99.90
52159;DHT22;38145;53.182;6.284;2022-07-23T08:57:59;17.80;99.90
52159;DHT22;38145;53.182;6.284;2022-07-23T09:00:27;17.80;99.90
52159;DHT22;38145;53.182;6.284;2022-07-23T09:02:53;17.80;99.90
52159;DHT22;38145;53.182;6.284;2022-07-23T09:05:20;17.80;99.90
52159;DHT22;38145;53.182;6.284;2022-07-23T09:08:09;17.80;99.90
52159;DHT22;38145;53.182;6.284;2022-07-23T09:10:43;17.90;99.90
52159;DHT22;38145;53.182;6.284;2022-07-23T09:16:07;17.90;99.90
52159;DHT22;38145;53.182;6.284;2022-07-23T09:18:37;18.10;99.90
52159;DHT22;38145;53.182;6.284;2022-07-23T09:21:24;18.50;99.90
52159;DHT22;38145;53.182;6.284;2022-07-23T09:23:56;18.80;99.90
52159;DHT22;38145;53.182;6.284;2022-07-23T09:28:52;18.90;99.90
52159;DHT22;38145;53.182;6.284;2022-07-23T09:31:20;18.90;99.90
52159;DHT22;38145;53.182;6.284;2022-07-23T09:33:47;19.00;99.90
52159;DHT22;38145;53.182;6.284;2022-07-23T09:36:13;18.90;99.90
52159;DHT22;38145;53.182;6.284;2022-07-23T09:38:50;18.90;99.90
52159;DHT22;38145;53.182;6.284;2022-07-23T09:41:17;18.80;99.90
52159;DHT22;38145;53.182;6.284;2022-07-23T09:43:43;18.70;99.90
52159;DHT22;38145;53.182;6.284;2022-07-23T09:46:24;18.70;99.90
52159;DHT22;38145;53.182;6.284;2022-07-23T09:48:51;18.70;99.90
52159;DHT22;38145;53.182;6.284;2022-07-23T09:51:19;18.60;99.90
52159;DHT22;38145;53.182;6.284;2022-07-23T09:53:56;18.70;99.90
52159;DHT22;38145;53.182;6.284;2022-07-23T09:56:22;18.80;99.90
52159;DHT22;38145;53.182;6.284;2022-07-23T09:58:50;18.90;99.90
52159;DHT22;38145;53.182;6.284;2022-07-23T10:01:19;19.00;99.90
52159;DHT22;38145;53.182;6.284;2022-07-23T10:03:47;19.30;99.90
52159;DHT22;38145;53.182;6.284;2022-07-23T10:06:14;19.30;99.90
52159;DHT22;38145;53.182;6.284;2022-07-23T10:08:41;19.30;99.90
52159;DHT22;38145;53.182;6.284;2022-07-23T10:11:10;19.30;99.90
52159;DHT22;38145;53.182;6.284;2022-07-23T10:13:37;19.20;99.90
52159;DHT22;38145;53.182;6.284;2022-07-23T10:16:16;19.10;99.90
52159;DHT22;38145;53.182;6.284;2022-07-23T10:18:43;19.10;99.90
52159;DHT22;38145;53.182;6.284;2022-07-23T10:21:10;19.10;99.90
52159;DHT22;38145;53.182;6.284;2022-07-23T10:23:45;19.10;99.90
52159;DHT22;38145;53.182;6.284;2022-07-23T10:26:18;19.00;99.90
52159;DHT22;38145;53.182;6.284;2022-07-23T10:28:54;18.90;99.90
52159;DHT22;38145;53.182;6.284;2022-07-23T10:31:42;18.80;99.90
52159;DHT22;38145;53.182;6.284;2022-07-23T10:34:25;18.80;99.90
52159;DHT22;38145;53.182;6.284;2022-07-23T10:37:04;18.70;99.90
52159;DHT22;38145;53.182;6.284;2022-07-23T10:39:34;18.60;99.90
52159;DHT22;38145;53.182;6.284;2022-07-23T10:42:16;18.60;99.90
52159;DHT22;38145;53.182;6.284;2022-07-23T10:44:45;18.70;99.90
52159;DHT22;38145;53.182;6.284;2022-07-23T10:47:13;18.80;99.90
52159;DHT22;38145;53.182;6.284;2022-07-23T10:49:48;18.80;99.90
52159;DHT22;38145;53.182;6.284;2022-07-23T10:52:17;18.80;99.90
52159;DHT22;38145;53.182;6.284;2022-07-23T10:54:55;18.90;99.90
52159;DHT22;38145;53.182;6.284;2022-07-23T10:57:28;19.00;99.90
52159;DHT22;38145;53.182;6.284;2022-07-23T11:02:37;19.20;99.90
52159;DHT22;38145;53.182;6.284;2022-07-23T11:05:06;19.30;99.90
52159;DHT22;38145;53.182;6.284;2022-07-23T11:32:02;20.00;99.90
52159;DHT22;38145;53.182;6.284;2022-07-23T11:34:33;20.20;99.90
52159;DHT22;38145;53.182;6.284;2022-07-23T11:37:02;20.20;99.90
52159;DHT22;38145;53.182;6.284;2022-07-23T11:39:32;20.50;99.90
52159;DHT22;38145;53.182;6.284;2022-07-23T11:42:01;20.50;99.90
52159;DHT22;38145;53.182;6.284;2022-07-23T11:44:33;20.40;99.90
52159;DHT22;38145;53.182;6.284;2022-07-23T11:47:04;20.30;99.90
52159;DHT22;38145;53.182;6.284;2022-07-23T11:49:31;20.40;99.90
52159;DHT22;38145;53.182;6.284;2022-07-23T11:52:10;20.40;99.90
52159;DHT22;38145;53.182;6.284;2022-07-23T11:57:19;20.70;99.90
52159;DHT22;38145;53.182;6.284;2022-07-23T11:59:52;20.50;99.90
52159;DHT22;38145;53.182;6.284;2022-07-23T12:02:20;20.40;99.90
52159;DHT22;38145;53.182;6.284;2022-07-23T12:04:48;20.20;99.90
52159;DHT22;38145;53.182;6.284;2022-07-23T12:07:32;20.00;99.90
52159;DHT22;38145;53.182;6.284;2022-07-23T12:10:01;20.40;99.90
52159;DHT22;38145;53.182;6.284;2022-07-23T12:12:27;20.70;99.90
52159;DHT22;38145;53.182;6.284;2022-07-23T12:15:01;20.80;99.90
52159;DHT22;38145;53.182;6.284;2022-07-23T12:17:35;20.60;99.90
52159;DHT22;38145;53.182;6.284;2022-07-23T12:20:06;20.50;99.90
52159;DHT22;38145;53.182;6.284;2022-07-23T12:22:40;20.40;99.90
52159;DHT22;38145;53.182;6.284;2022-07-23T12:25:10;20.70;99.90
52159;DHT22;38145;53.182;6.284;2022-07-23T12:27:43;21.10;99.90
52159;DHT22;38145;53.182;6.284;2022-07-23T12:30:21;21.60;99.90
52159;DHT22;38145;53.182;6.284;2022-07-23T12:32:50;22.00;99.90
52159;DHT22;38145;53.182;6.284;2022-07-23T12:35:18;22.20;99.90
52159;DHT22;38145;53.182;6.284;2022-07-23T12:37:50;22.30;99.90
52159;DHT22;38145;53.182;6.284;2022-07-23T12:40:26;22.20;99.90
52159;DHT22;38145;53.182;6.284;2022-07-23T12:43:01;22.00;99.90
52159;DHT22;38145;53.182;6.284;2022-07-23T12:45:41;22.10;99.90
52159;DHT22;38145;53.182;6.284;2022-07-23T12:48:08;21.70;99.90
52159;DHT22;38145;53.182;6.284;2022-07-23T12:50:39;21.60;99.90
52159;DHT22;38145;53.182;6.284;2022-07-23T12:53:11;21.70;99.90
52159;DHT22;38145;53.182;6.284;2022-07-23T12:55:39;21.70;99.90
52159;DHT22;38145;53.182;6.284;2022-07-23T12:58:14;21.70;99.90
52159;DHT22;38145;53.182;6.284;2022-07-23T13:00:57;21.80;99.90
52159;DHT22;38145;53.182;6.284;2022-07-23T13:03:36;22.00;99.90
52159;DHT22;38145;53.182;6.284;2022-07-23T13:06:06;22.30;99.90
52159;DHT22;38145;53.182;6.284;2022-07-23T13:08:33;22.50;99.90
52159;DHT22;38145;53.182;6.284;2022-07-23T13:11:01;22.50;99.90
52159;DHT22;38145;53.182;6.284;2022-07-23T13:13:30;22.30;99.90
52159;DHT22;38145;53.182;6.284;2022-07-23T13:15:58;22.40;99.90
52159;DHT22;38145;53.182;6.284;2022-07-23T13:18:25;22.20;99.90
52159;DHT22;38145;53.182;6.284;2022-07-23T13:20:52;22.20;99.90
52159;DHT22;38145;53.182;6.284;2022-07-23T13:23:19;22.40;99.90
52159;DHT22;38145;53.182;6.284;2022-07-23T13:25:46;22.50;99.90
52159;DHT22;38145;53.182;6.284;2022-07-23T13:28:14;22.60;99.90
52159;DHT22;38145;53.182;6.284;2022-07-23T13:30:44;22.50;99.90
52159;DHT22;38145;53.182;6.284;2022-07-23T13:33:11;22.40;99.90
52159;DHT22;38145;53.182;6.284;2022-07-23T13:35:38;22.20;99.90
52159;DHT22;38145;53.182;6.284;2022-07-23T13:38:06;22.00;99.90
52159;DHT22;38145;53.182;6.284;2022-07-23T13:40:38;21.80;99.90
52159;DHT22;38145;53.182;6.284;2022-07-23T13:43:10;21.80;99.90
52159;DHT22;38145;53.182;6.284;2022-07-23T13:45:38;21.80;99.90
52159;DHT22;38145;53.182;6.284;2022-07-23T13:48:06;21.70;99.90
52159;DHT22;38145;53.182;6.284;2022-07-23T13:50:33;21.50;99.90
52159;DHT22;38145;53.182;6.284;2022-07-23T13:53:06;21.50;99.90
52159;DHT22;38145;53.182;6.284;2022-07-23T13:55:36;21.50;99.90
52159;DHT22;38145;53.182;6.284;2022-07-23T13:58:03;21.60;99.90
52159;DHT22;38145;53.182;6.284;2022-07-23T14:00:31;21.70;99.90
52159;DHT22;38145;53.182;6.284;2022-07-23T14:03:00;21.90;99.90
52159;DHT22;38145;53.182;6.284;2022-07-23T14:05:27;21.90;99.90
52159;DHT22;38145;53.182;6.284;2022-07-23T14:07:53;22.10;99.90
52159;DHT22;38145;53.182;6.284;2022-07-23T14:10:21;22.30;99.90
52159;DHT22;38145;53.182;6.284;2022-07-23T14:12:49;22.40;99.90
52159;DHT22;38145;53.182;6.284;2022-07-23T14:15:17;22.60;99.90
52159;DHT22;38145;53.182;6.284;2022-07-23T14:17:45;22.60;99.90
52159;DHT22;38145;53.182;6.284;2022-07-23T14:20:12;22.50;99.90
52159;DHT22;38145;53.182;6.284;2022-07-23T14:22:40;22.50;99.90
52159;DHT22;38145;53.182;6.284;2022-07-23T14:25:08;22.50;99.90
52159;DHT22;38145;53.182;6.284;2022-07-23T14:27:35;22.50;99.90
52159;DHT22;38145;53.182;6.284;2022-07-23T14:30:05;22.40;99.90
52159;DHT22;38145;53.182;6.284;2022-07-23T14:32:32;22.40;99.90
52159;DHT22;38145;53.182;6.284;2022-07-23T14:34:59;22.50;99.90
52159;DHT22;38145;53.182;6.284;2022-07-23T14:37:25;22.40;99.90
52159;DHT22;38145;53.182;6.284;2022-07-23T14:39:52;22.10;99.90
52159;DHT22;38145;53.182;6.284;2022-07-23T14:42:18;22.00;99.90
52159;DHT22;38145;53.182;6.284;2022-07-23T14:44:46;21.90;99.90
52159;DHT22;38145;53.182;6.284;2022-07-23T14:47:12;21.90;99.90
52159;DHT22;38145;53.182;6.284;2022-07-23T14:49:39;21.90;99.90
52159;DHT22;38145;53.182;6.284;2022-07-23T14:52:06;21.90;99.90
52159;DHT22;38145;53.182;6.284;2022-07-23T14:54:33;22.00;99.90
52159;DHT22;38145;53.182;6.284;2022-07-23T14:57:00;22.10;99.90
52159;DHT22;38145;53.182;6.284;2022-07-23T14:59:28;22.30;99.90
52159;DHT22;38145;53.182;6.284;2022-07-23T15:01:57;22.20;99.90
52159;DHT22;38145;53.182;6.284;2022-07-23T15:04:24;22.20;99.90
52159;DHT22;38145;53.182;6.284;2022-07-23T15:06:50;22.10;99.90
52159;DHT22;38145;53.182;6.284;2022-07-23T15:09:17;22.20;99.90
52159;DHT22;38145;53.182;6.284;2022-07-23T15:11:43;22.10;99.90
52159;DHT22;38145;53.182;6.284;2022-07-23T15:14:10;22.10;99.90
52159;DHT22;38145;53.182;6.284;2022-07-23T15:16:37;22.10;99.90
52159;DHT22;38145;53.182;6.284;2022-07-23T15:19:03;22.20;99.90
52159;DHT22;38145;53.182;6.284;2022-07-23T15:21:30;22.20;99.90
52159;DHT22;38145;53.182;6.284;2022-07-23T15:23:58;22.10;99.90
52159;DHT22;38145;53.182;6.284;2022-07-23T15:26:28;22.10;99.90
52159;DHT22;38145;53.182;6.284;2022-07-23T15:28:56;21.90;99.90
52159;DHT22;38145;53.182;6.284;2022-07-23T15:31:24;21.70;99.90
52159;DHT22;38145;53.182;6.284;2022-07-23T15:33:51;21.60;99.90
52159;DHT22;38145;53.182;6.284;2022-07-23T15:36:19;21.50;99.90
52159;DHT22;38145;53.182;6.284;2022-07-23T15:38:46;21.30;99.90
52159;DHT22;38145;53.182;6.284;2022-07-23T15:41:13;21.40;99.90
52159;DHT22;38145;53.182;6.284;2022-07-23T15:43:40;21.50;99.90
52159;DHT22;38145;53.182;6.284;2022-07-23T15:46:06;21.50;99.90
52159;DHT22;38145;53.182;6.284;2022-07-23T15:48:44;21.60;99.90
52159;DHT22;38145;53.182;6.284;2022-07-23T15:51:12;21.70;99.90
52159;DHT22;38145;53.182;6.284;2022-07-23T15:53:38;21.80;99.90
52159;DHT22;38145;53.182;6.284;2022-07-23T15:56:06;21.90;99.90
52159;DHT22;38145;53.182;6.284;2022-07-23T15:58:33;21.90;99.90
52159;DHT22;38145;53.182;6.284;2022-07-23T16:00:59;21.80;99.90
52159;DHT22;38145;53.182;6.284;2022-07-23T16:03:30;21.70;99.90
52159;DHT22;38145;53.182;6.284;2022-07-23T16:05:57;21.70;99.90
52159;DHT22;38145;53.182;6.284;2022-07-23T16:08:25;21.50;99.90
52159;DHT22;38145;53.182;6.284;2022-07-23T16:10:52;21.50;99.90